sensor_id;sensor_type;location;lat;lon;timestamp;P1;durP1;ratioP1;P2;durP2;ratioP2
3589;SDS011;1809;48.470;9.226;2023-05-19T00:00:35;3.37;;;2.90;;
3589;SDS011;1809;48.470;9.226;2023-05-19T00:03:03;6.00;;;3.40;;
3589;SDS011;1809;48.470;9.226;2023-05-19T00:05:29;3.07;;;2.77;;
3589;SDS011;1809;48.470;9.226;2023-05-19T00:07:56;8.63;;;4.17;;
3589;SDS011;1809;48.470;9.226;2023-05-19T00:10:23;8.00;;;3.20;;
3589;SDS011;1809;48.470;9.226;2023-05-19T00:12:51;3.70;;;3.30;;
3589;SDS011;1809;48.470;9.226;2023-05-19T00:15:17;4.93;;;3.80;;
3589;SDS011;1809;48.470;9.226;2023-05-19T00:17:42;5.27;;;3.30;;
3589;SDS011;1809;48.470;9.226;2023-05-19T00:20:08;5.00;;;3.07;;
3589;SDS011;1809;48.470;9.226;2023-05-19T00:22:36;4.97;;;4.07;;
3589;SDS011;1809;48.470;9.226;2023-05-19T00:25:01;5.80;;;3.40;;
3589;SDS011;1809;48.470;9.226;2023-05-19T00:27:27;3.43;;;3.13;;
3589;SDS011;1809;48.470;9.226;2023-05-19T00:29:52;4.00;;;3.13;;
3589;SDS011;1809;48.470;9.226;2023-05-19T00:32:17;4.27;;;3.87;;
3589;SDS011;1809;48.470;9.226;2023-05-19T00:34:43;3.03;;;2.83;;
3589;SDS011;1809;48.470;9.226;2023-05-19T00:37:08;5.67;;;3.90;;
3589;SDS011;1809;48.470;9.226;2023-05-19T00:39:33;4.10;;;3.20;;
3589;SDS011;1809;48.470;9.226;2023-05-19T00:41:59;6.43;;;3.60;;
3589;SDS011;1809;48.470;9.226;2023-05-19T00:44:24;5.27;;;3.53;;
3589;SDS011;1809;48.470;9.226;2023-05-19T00:46:49;3.30;;;2.97;;
3589;SDS011;1809;48.470;9.226;2023-05-19T00:49:15;5.37;;;3.23;;
3589;SDS011;1809;48.470;9.226;2023-05-19T00:51:40;7.43;;;3.50;;
3589;SDS011;1809;48.470;9.226;2023-05-19T00:54:06;6.17;;;3.30;;
3589;SDS011;1809;48.470;9.226;2023-05-19T00:56:32;5.80;;;2.77;;
3589;SDS011;1809;48.470;9.226;2023-05-19T00:58:57;4.03;;;3.70;;
3589;SDS011;1809;48.470;9.226;2023-05-19T01:01:23;11.90;;;3.30;;
3589;SDS011;1809;48.470;9.226;2023-05-19T01:03:50;4.50;;;3.43;;
3589;SDS011;1809;48.470;9.226;2023-05-19T01:06:16;4.93;;;3.07;;
3589;SDS011;1809;48.470;9.226;2023-05-19T01:08:43;3.00;;;2.80;;
3589;SDS011;1809;48.470;9.226;2023-05-19T01:11:09;4.57;;;3.40;;
3589;SDS011;1809;48.470;9.226;2023-05-19T01:13:35;6.23;;;4.00;;
3589;SDS011;1809;48.470;9.226;2023-05-19T01:18:42;3.83;;;3.37;;
3589;SDS011;1809;48.470;9.226;2023-05-19T01:30:29;3.33;;;2.30;;
3589;SDS011;1809;48.470;9.226;2023-05-19T01:32:58;3.53;;;3.00;;
3589;SDS011;1809;48.470;9.226;2023-05-19T01:35:26;2.73;;;2.50;;
3589;SDS011;1809;48.470;9.226;2023-05-19T01:37:53;6.53;;;2.63;;
3589;SDS011;1809;48.470;9.226;2023-05-19T01:40:23;7.40;;;2.87;;
3589;SDS011;1809;48.470;9.226;2023-05-19T01:42:50;3.40;;;3.00;;
3589;SDS011;1809;48.470;9.226;2023-05-19T01:45:17;4.83;;;2.70;;
3589;SDS011;1809;48.470;9.226;2023-05-19T01:47:45;3.17;;;2.97;;
3589;SDS011;1809;48.470;9.226;2023-05-19T01:50:13;5.23;;;3.50;;
3589;SDS011;1809;48.470;9.226;2023-05-19T01:52:38;3.40;;;3.07;;
3589;SDS011;1809;48.470;9.226;2023-05-19T01:55:04;3.30;;;2.70;;
3589;SDS011;1809;48.470;9.226;2023-05-19T01:57:45;3.30;;;3.00;;
3589;SDS011;1809;48.470;9.226;2023-05-19T02:00:43;3.23;;;3.03;;
3589;SDS011;1809;48.470;9.226;2023-05-19T02:03:22;3.57;;;2.50;;
3589;SDS011;1809;48.470;9.226;2023-05-19T02:06:04;7.13;;;2.80;;
3589;SDS011;1809;48.470;9.226;2023-05-19T02:08:33;10.73;;;3.30;;
3589;SDS011;1809;48.470;9.226;2023-05-19T02:11:32;3.27;;;2.97;;
3589;SDS011;1809;48.470;9.226;2023-05-19T02:14:02;3.00;;;2.70;;
3589;SDS011;1809;48.470;9.226;2023-05-19T02:16:39;3.87;;;2.77;;
3589;SDS011;1809;48.470;9.226;2023-05-19T02:19:18;3.30;;;3.00;;
3589;SDS011;1809;48.470;9.226;2023-05-19T02:22:04;3.30;;;3.00;;
3589;SDS011;1809;48.470;9.226;2023-05-19T02:24:30;3.47;;;3.17;;
3589;SDS011;1809;48.470;9.226;2023-05-19T02:26:55;2.90;;;2.70;;
3589;SDS011;1809;48.470;9.226;2023-05-19T02:29:20;3.30;;;3.00;;
3589;SDS011;1809;48.470;9.226;2023-05-19T02:31:46;3.77;;;3.47;;
3589;SDS011;1809;48.470;9.226;2023-05-19T02:34:11;7.37;;;3.43;;
3589;SDS011;1809;48.470;9.226;2023-05-19T02:36:37;4.10;;;3.80;;
3589;SDS011;1809;48.470;9.226;2023-05-19T02:39:05;6.83;;;3.03;;
3589;SDS011;1809;48.470;9.226;2023-05-19T02:41:31;3.90;;;3.60;;
3589;SDS011;1809;48.470;9.226;2023-05-19T02:43:56;3.23;;;2.93;;
3589;SDS011;1809;48.470;9.226;2023-05-19T02:46:21;3.90;;;3.50;;
3589;SDS011;1809;48.470;9.226;2023-05-19T02:48:47;5.30;;;3.20;;
3589;SDS011;1809;48.470;9.226;2023-05-19T02:51:12;4.33;;;3.90;;
3589;SDS011;1809;48.470;9.226;2023-05-19T02:53:38;10.37;;;4.13;;
3589;SDS011;1809;48.470;9.226;2023-05-19T02:56:03;3.77;;;3.57;;
3589;SDS011;1809;48.470;9.226;2023-05-19T02:58:28;5.83;;;4.40;;
3589;SDS011;1809;48.470;9.226;2023-05-19T03:00:54;7.40;;;4.20;;
3589;SDS011;1809;48.470;9.226;2023-05-19T03:03:20;5.13;;;3.93;;
3589;SDS011;1809;48.470;9.226;2023-05-19T03:05:45;10.87;;;3.87;;
3589;SDS011;1809;48.470;9.226;2023-05-19T03:08:11;7.80;;;4.27;;
3589;SDS011;1809;48.470;9.226;2023-05-19T03:10:36;5.80;;;3.50;;
3589;SDS011;1809;48.470;9.226;2023-05-19T03:13:02;7.00;;;4.37;;
3589;SDS011;1809;48.470;9.226;2023-05-19T03:15:27;4.10;;;3.70;;
3589;SDS011;1809;48.470;9.226;2023-05-19T03:17:53;7.23;;;3.73;;
3589;SDS011;1809;48.470;9.226;2023-05-19T03:20:18;5.47;;;3.73;;
3589;SDS011;1809;48.470;9.226;2023-05-19T03:22:43;4.57;;;2.97;;
3589;SDS011;1809;48.470;9.226;2023-05-19T03:25:09;6.00;;;3.90;;
3589;SDS011;1809;48.470;9.226;2023-05-19T03:27:34;7.33;;;3.40;;
3589;SDS011;1809;48.470;9.226;2023-05-19T03:29:59;4.87;;;3.50;;
3589;SDS011;1809;48.470;9.226;2023-05-19T03:32:25;4.63;;;3.40;;
3589;SDS011;1809;48.470;9.226;2023-05-19T03:34:50;6.30;;;3.37;;
3589;SDS011;1809;48.470;9.226;2023-05-19T03:37:16;8.50;;;3.93;;
3589;SDS011;1809;48.470;9.226;2023-05-19T03:39:41;4.43;;;3.73;;
3589;SDS011;1809;48.470;9.226;2023-05-19T03:42:06;4.57;;;2.90;;
3589;SDS011;1809;48.470;9.226;2023-05-19T03:44:32;5.23;;;3.93;;
3589;SDS011;1809;48.470;9.226;2023-05-19T03:46:57;9.70;;;4.10;;
3589;SDS011;1809;48.470;9.226;2023-05-19T03:49:22;5.20;;;3.40;;
3589;SDS011;1809;48.470;9.226;2023-05-19T03:51:47;4.90;;;3.63;;
3589;SDS011;1809;48.470;9.226;2023-05-19T03:54:13;6.47;;;3.70;;
3589;SDS011;1809;48.470;9.226;2023-05-19T03:56:38;7.03;;;4.30;;
3589;SDS011;1809;48.470;9.226;2023-05-19T03:59:04;4.63;;;3.63;;
3589;SDS011;1809;48.470;9.226;2023-05-19T04:01:31;4.50;;;4.00;;
3589;SDS011;1809;48.470;9.226;2023-05-19T04:03:57;4.33;;;3.93;;
3589;SDS011;1809;48.470;9.226;2023-05-19T04:06:22;6.73;;;3.77;;
3589;SDS011;1809;48.470;9.226;2023-05-19T04:08:48;5.27;;;3.93;;
3589;SDS011;1809;48.470;9.226;2023-05-19T04:11:13;3.90;;;3.50;;
3589;SDS011;1809;48.470;9.226;2023-05-19T04:13:38;5.90;;;3.90;;
3589;SDS011;1809;48.470;9.226;2023-05-19T04:16:04;6.60;;;3.83;;
3589;SDS011;1809;48.470;9.226;2023-05-19T04:18:30;9.10;;;4.80;;
3589;SDS011;1809;48.470;9.226;2023-05-19T04:20:55;11.70;;;4.60;;
3589;SDS011;1809;48.470;9.226;2023-05-19T04:23:20;9.00;;;4.70;;
3589;SDS011;1809;48.470;9.226;2023-05-19T04:25:46;8.80;;;4.40;;
3589;SDS011;1809;48.470;9.226;2023-05-19T04:28:13;11.10;;;4.73;;
3589;SDS011;1809;48.470;9.226;2023-05-19T04:30:38;5.33;;;3.10;;
3589;SDS011;1809;48.470;9.226;2023-05-19T04:33:04;6.60;;;3.80;;
3589;SDS011;1809;48.470;9.226;2023-05-19T04:35:29;7.70;;;4.67;;
3589;SDS011;1809;48.470;9.226;2023-05-19T04:37:55;10.33;;;4.53;;
3589;SDS011;1809;48.470;9.226;2023-05-19T04:40:20;4.47;;;4.03;;
3589;SDS011;1809;48.470;9.226;2023-05-19T04:42:47;8.63;;;4.80;;
3589;SDS011;1809;48.470;9.226;2023-05-19T04:45:16;10.67;;;5.07;;
3589;SDS011;1809;48.470;9.226;2023-05-19T04:47:42;7.07;;;5.00;;
3589;SDS011;1809;48.470;9.226;2023-05-19T04:50:08;8.17;;;4.83;;
3589;SDS011;1809;48.470;9.226;2023-05-19T04:52:35;7.70;;;4.03;;
3589;SDS011;1809;48.470;9.226;2023-05-19T04:55:00;6.83;;;4.33;;
3589;SDS011;1809;48.470;9.226;2023-05-19T04:57:25;9.57;;;3.53;;
3589;SDS011;1809;48.470;9.226;2023-05-19T04:59:51;9.47;;;4.20;;
3589;SDS011;1809;48.470;9.226;2023-05-19T05:02:17;7.67;;;4.47;;
3589;SDS011;1809;48.470;9.226;2023-05-19T05:04:42;13.10;;;4.57;;
3589;SDS011;1809;48.470;9.226;2023-05-19T05:07:08;9.33;;;5.37;;
3589;SDS011;1809;48.470;9.226;2023-05-19T05:09:33;8.67;;;4.30;;
3589;SDS011;1809;48.470;9.226;2023-05-19T05:12:00;10.53;;;4.63;;
3589;SDS011;1809;48.470;9.226;2023-05-19T05:14:25;7.83;;;4.50;;
3589;SDS011;1809;48.470;9.226;2023-05-19T05:16:51;14.83;;;6.00;;
3589;SDS011;1809;48.470;9.226;2023-05-19T05:19:17;7.00;;;4.33;;
3589;SDS011;1809;48.470;9.226;2023-05-19T05:21:42;15.20;;;4.83;;
3589;SDS011;1809;48.470;9.226;2023-05-19T05:24:08;12.10;;;5.33;;
3589;SDS011;1809;48.470;9.226;2023-05-19T05:26:35;15.27;;;4.60;;
3589;SDS011;1809;48.470;9.226;2023-05-19T05:29:01;22.50;;;4.43;;
3589;SDS011;1809;48.470;9.226;2023-05-19T05:31:27;11.53;;;4.53;;
3589;SDS011;1809;48.470;9.226;2023-05-19T05:33:52;8.80;;;4.17;;
3589;SDS011;1809;48.470;9.226;2023-05-19T05:36:18;12.47;;;4.43;;
3589;SDS011;1809;48.470;9.226;2023-05-19T05:38:43;6.83;;;4.90;;
3589;SDS011;1809;48.470;9.226;2023-05-19T05:41:08;10.80;;;4.70;;
3589;SDS011;1809;48.470;9.226;2023-05-19T05:43:34;4.97;;;3.97;;
3589;SDS011;1809;48.470;9.226;2023-05-19T05:45:59;8.30;;;3.70;;
3589;SDS011;1809;48.470;9.226;2023-05-19T05:48:25;8.10;;;4.70;;
3589;SDS011;1809;48.470;9.226;2023-05-19T05:50:51;9.70;;;4.30;;
3589;SDS011;1809;48.470;9.226;2023-05-19T05:53:17;13.77;;;4.30;;
3589;SDS011;1809;48.470;9.226;2023-05-19T05:55:46;5.97;;;4.40;;
3589;SDS011;1809;48.470;9.226;2023-05-19T05:58:12;11.00;;;4.40;;
3589;SDS011;1809;48.470;9.226;2023-05-19T06:00:39;7.10;;;3.93;;
3589;SDS011;1809;48.470;9.226;2023-05-19T06:03:07;9.13;;;4.73;;
3589;SDS011;1809;48.470;9.226;2023-05-19T06:05:33;9.50;;;3.90;;
3589;SDS011;1809;48.470;9.226;2023-05-19T06:07:59;6.90;;;4.50;;
3589;SDS011;1809;48.470;9.226;2023-05-19T06:10:24;6.93;;;5.13;;
3589;SDS011;1809;48.470;9.226;2023-05-19T06:12:50;8.00;;;4.40;;
3589;SDS011;1809;48.470;9.226;2023-05-19T06:15:15;11.13;;;5.27;;
3589;SDS011;1809;48.470;9.226;2023-05-19T06:17:41;17.90;;;4.47;;
3589;SDS011;1809;48.470;9.226;2023-05-19T06:20:06;12.50;;;4.70;;
3589;SDS011;1809;48.470;9.226;2023-05-19T06:22:34;7.43;;;4.17;;
3589;SDS011;1809;48.470;9.226;2023-05-19T06:24:59;9.00;;;3.80;;
3589;SDS011;1809;48.470;9.226;2023-05-19T06:27:25;9.13;;;4.10;;
3589;SDS011;1809;48.470;9.226;2023-05-19T06:29:50;11.07;;;5.07;;
3589;SDS011;1809;48.470;9.226;2023-05-19T06:32:15;15.07;;;4.67;;
3589;SDS011;1809;48.470;9.226;2023-05-19T06:34:41;8.80;;;4.10;;
3589;SDS011;1809;48.470;9.226;2023-05-19T06:37:06;11.37;;;4.17;;
3589;SDS011;1809;48.470;9.226;2023-05-19T06:39:31;14.10;;;4.17;;
3589;SDS011;1809;48.470;9.226;2023-05-19T06:41:57;5.17;;;4.00;;
3589;SDS011;1809;48.470;9.226;2023-05-19T06:44:23;8.03;;;4.60;;
3589;SDS011;1809;48.470;9.226;2023-05-19T06:46:48;5.83;;;3.70;;
3589;SDS011;1809;48.470;9.226;2023-05-19T06:49:14;9.73;;;4.53;;
3589;SDS011;1809;48.470;9.226;2023-05-19T06:51:39;6.20;;;3.50;;
3589;SDS011;1809;48.470;9.226;2023-05-19T06:54:05;11.50;;;4.53;;
3589;SDS011;1809;48.470;9.226;2023-05-19T06:56:30;5.27;;;3.83;;
3589;SDS011;1809;48.470;9.226;2023-05-19T06:58:56;6.30;;;5.10;;
3589;SDS011;1809;48.470;9.226;2023-05-19T07:01:21;8.37;;;3.90;;
3589;SDS011;1809;48.470;9.226;2023-05-19T07:03:47;7.30;;;3.70;;
3589;SDS011;1809;48.470;9.226;2023-05-19T07:06:12;11.70;;;4.20;;
3589;SDS011;1809;48.470;9.226;2023-05-19T07:08:37;6.60;;;3.90;;
3589;SDS011;1809;48.470;9.226;2023-05-19T07:11:03;12.87;;;4.63;;
3589;SDS011;1809;48.470;9.226;2023-05-19T07:13:28;6.07;;;4.70;;
3589;SDS011;1809;48.470;9.226;2023-05-19T07:15:54;11.70;;;4.90;;
3589;SDS011;1809;48.470;9.226;2023-05-19T07:18:22;5.97;;;4.30;;
3589;SDS011;1809;48.470;9.226;2023-05-19T07:20:47;5.13;;;4.50;;
3589;SDS011;1809;48.470;9.226;2023-05-19T07:23:12;9.97;;;4.77;;
3589;SDS011;1809;48.470;9.226;2023-05-19T07:25:38;7.50;;;4.43;;
3589;SDS011;1809;48.470;9.226;2023-05-19T07:28:03;4.93;;;3.90;;
3589;SDS011;1809;48.470;9.226;2023-05-19T07:30:29;5.40;;;3.83;;
3589;SDS011;1809;48.470;9.226;2023-05-19T07:32:55;8.23;;;4.17;;
3589;SDS011;1809;48.470;9.226;2023-05-19T07:35:20;19.20;;;4.40;;
3589;SDS011;1809;48.470;9.226;2023-05-19T07:37:49;9.90;;;4.73;;
3589;SDS011;1809;48.470;9.226;2023-05-19T07:40:15;7.13;;;4.10;;
3589;SDS011;1809;48.470;9.226;2023-05-19T07:42:41;5.90;;;4.50;;
3589;SDS011;1809;48.470;9.226;2023-05-19T07:45:06;5.93;;;3.70;;
3589;SDS011;1809;48.470;9.226;2023-05-19T07:47:32;5.77;;;4.37;;
3589;SDS011;1809;48.470;9.226;2023-05-19T07:49:58;7.27;;;4.03;;
3589;SDS011;1809;48.470;9.226;2023-05-19T07:52:23;3.83;;;3.63;;
3589;SDS011;1809;48.470;9.226;2023-05-19T07:54:49;4.70;;;3.33;;
3589;SDS011;1809;48.470;9.226;2023-05-19T07:57:14;4.50;;;4.07;;
3589;SDS011;1809;48.470;9.226;2023-05-19T07:59:40;11.53;;;6.37;;
3589;SDS011;1809;48.470;9.226;2023-05-19T08:02:06;4.13;;;3.73;;
3589;SDS011;1809;48.470;9.226;2023-05-19T08:04:31;9.77;;;3.13;;
3589;SDS011;1809;48.470;9.226;2023-05-19T08:06:57;5.10;;;4.10;;
3589;SDS011;1809;48.470;9.226;2023-05-19T08:09:23;5.33;;;3.20;;
3589;SDS011;1809;48.470;9.226;2023-05-19T08:11:49;5.70;;;3.60;;
3589;SDS011;1809;48.470;9.226;2023-05-19T08:14:14;11.23;;;4.50;;
3589;SDS011;1809;48.470;9.226;2023-05-19T08:16:40;12.10;;;5.23;;
3589;SDS011;1809;48.470;9.226;2023-05-19T08:19:10;11.37;;;5.30;;
3589;SDS011;1809;48.470;9.226;2023-05-19T08:21:35;8.63;;;4.20;;
3589;SDS011;1809;48.470;9.226;2023-05-19T08:24:01;8.40;;;5.30;;
3589;SDS011;1809;48.470;9.226;2023-05-19T08:26:27;6.63;;;4.90;;
3589;SDS011;1809;48.470;9.226;2023-05-19T08:28:53;6.27;;;4.40;;
3589;SDS011;1809;48.470;9.226;2023-05-19T08:31:18;17.70;;;5.03;;
3589;SDS011;1809;48.470;9.226;2023-05-19T08:33:44;6.10;;;4.17;;
3589;SDS011;1809;48.470;9.226;2023-05-19T08:36:10;8.80;;;4.90;;
3589;SDS011;1809;48.470;9.226;2023-05-19T08:38:36;8.53;;;5.13;;
3589;SDS011;1809;48.470;9.226;2023-05-19T08:41:02;5.90;;;5.20;;
3589;SDS011;1809;48.470;9.226;2023-05-19T08:43:27;12.43;;;5.30;;
3589;SDS011;1809;48.470;9.226;2023-05-19T08:45:53;7.90;;;4.80;;
3589;SDS011;1809;48.470;9.226;2023-05-19T08:48:20;5.47;;;4.93;;
3589;SDS011;1809;48.470;9.226;2023-05-19T08:50:50;8.67;;;4.80;;
3589;SDS011;1809;48.470;9.226;2023-05-19T08:53:29;9.07;;;5.13;;
3589;SDS011;1809;48.470;9.226;2023-05-19T08:56:03;11.57;;;4.70;;
3589;SDS011;1809;48.470;9.226;2023-05-19T08:58:38;4.97;;;3.70;;
3589;SDS011;1809;48.470;9.226;2023-05-19T09:01:06;6.70;;;5.40;;
3589;SDS011;1809;48.470;9.226;2023-05-19T09:03:32;7.77;;;4.23;;
3589;SDS011;1809;48.470;9.226;2023-05-19T09:06:06;7.43;;;4.67;;
3589;SDS011;1809;48.470;9.226;2023-05-19T09:08:33;12.70;;;5.50;;
3589;SDS011;1809;48.470;9.226;2023-05-19T09:10:59;11.60;;;5.30;;
3589;SDS011;1809;48.470;9.226;2023-05-19T09:13:25;10.57;;;5.30;;
3589;SDS011;1809;48.470;9.226;2023-05-19T09:15:51;6.70;;;5.20;;
3589;SDS011;1809;48.470;9.226;2023-05-19T09:18:17;6.80;;;4.97;;
3589;SDS011;1809;48.470;9.226;2023-05-19T09:20:43;9.03;;;5.17;;
3589;SDS011;1809;48.470;9.226;2023-05-19T09:23:13;8.20;;;4.00;;
3589;SDS011;1809;48.470;9.226;2023-05-19T09:25:49;9.37;;;4.70;;
3589;SDS011;1809;48.470;9.226;2023-05-19T09:28:24;6.20;;;4.80;;
3589;SDS011;1809;48.470;9.226;2023-05-19T09:31:04;8.63;;;4.63;;
3589;SDS011;1809;48.470;9.226;2023-05-19T09:33:35;5.03;;;4.53;;
3589;SDS011;1809;48.470;9.226;2023-05-19T09:36:04;8.30;;;4.90;;
3589;SDS011;1809;48.470;9.226;2023-05-19T09:38:32;14.40;;;5.70;;
3589;SDS011;1809;48.470;9.226;2023-05-19T09:40:59;9.70;;;4.80;;
3589;SDS011;1809;48.470;9.226;2023-05-19T09:43:26;11.70;;;5.10;;
3589;SDS011;1809;48.470;9.226;2023-05-19T09:45:59;9.00;;;4.93;;
3589;SDS011;1809;48.470;9.226;2023-05-19T09:48:29;11.67;;;4.80;;
3589;SDS011;1809;48.470;9.226;2023-05-19T09:50:54;10.33;;;6.73;;
3589;SDS011;1809;48.470;9.226;2023-05-19T09:53:22;9.90;;;4.37;;
3589;SDS011;1809;48.470;9.226;2023-05-19T09:55:49;7.50;;;4.67;;
3589;SDS011;1809;48.470;9.226;2023-05-19T09:58:16;12.80;;;5.67;;
3589;SDS011;1809;48.470;9.226;2023-05-19T10:00:43;4.83;;;4.43;;
3589;SDS011;1809;48.470;9.226;2023-05-19T10:03:10;5.63;;;4.40;;
3589;SDS011;1809;48.470;9.226;2023-05-19T10:05:37;5.47;;;4.30;;
3589;SDS011;1809;48.470;9.226;2023-05-19T10:08:03;11.80;;;5.30;;
3589;SDS011;1809;48.470;9.226;2023-05-19T10:10:31;4.90;;;4.50;;
3589;SDS011;1809;48.470;9.226;2023-05-19T10:12:57;7.80;;;4.90;;
3589;SDS011;1809;48.470;9.226;2023-05-19T10:15:24;9.80;;;5.17;;
3589;SDS011;1809;48.470;9.226;2023-05-19T10:17:50;5.87;;;4.73;;
3589;SDS011;1809;48.470;9.226;2023-05-19T10:20:17;9.67;;;4.63;;
3589;SDS011;1809;48.470;9.226;2023-05-19T10:22:43;9.53;;;4.97;;
3589;SDS011;1809;48.470;9.226;2023-05-19T10:25:10;16.13;;;4.70;;
3589;SDS011;1809;48.470;9.226;2023-05-19T10:28:04;10.57;;;5.10;;
3589;SDS011;1809;48.470;9.226;2023-05-19T10:30:36;11.53;;;4.93;;
3589;SDS011;1809;48.470;9.226;2023-05-19T10:33:05;10.93;;;4.87;;
3589;SDS011;1809;48.470;9.226;2023-05-19T10:35:53;10.27;;;5.43;;
3589;SDS011;1809;48.470;9.226;2023-05-19T10:38:38;8.03;;;4.63;;
3589;SDS011;1809;48.470;9.226;2023-05-19T10:41:23;11.83;;;5.43;;
3589;SDS011;1809;48.470;9.226;2023-05-19T10:47:05;5.77;;;5.27;;
3589;SDS011;1809;48.470;9.226;2023-05-19T10:49:35;6.63;;;4.93;;
3589;SDS011;1809;48.470;9.226;2023-05-19T10:52:00;6.30;;;4.87;;
3589;SDS011;1809;48.470;9.226;2023-05-19T10:54:44;6.93;;;5.07;;
3589;SDS011;1809;48.470;9.226;2023-05-19T10:57:13;11.93;;;5.00;;
3589;SDS011;1809;48.470;9.226;2023-05-19T10:59:40;8.53;;;4.80;;
3589;SDS011;1809;48.470;9.226;2023-05-19T11:02:06;12.93;;;5.47;;
3589;SDS011;1809;48.470;9.226;2023-05-19T11:04:44;7.50;;;5.30;;
3589;SDS011;1809;48.470;9.226;2023-05-19T11:07:16;6.53;;;5.77;;
3589;SDS011;1809;48.470;9.226;2023-05-19T11:09:44;11.70;;;4.73;;
3589;SDS011;1809;48.470;9.226;2023-05-19T11:12:14;13.03;;;5.27;;
3589;SDS011;1809;48.470;9.226;2023-05-19T11:14:45;6.83;;;4.60;;
3589;SDS011;1809;48.470;9.226;2023-05-19T11:17:12;6.43;;;4.27;;
3589;SDS011;1809;48.470;9.226;2023-05-19T11:19:39;8.17;;;4.43;;
3589;SDS011;1809;48.470;9.226;2023-05-19T11:22:17;8.10;;;4.53;;
3589;SDS011;1809;48.470;9.226;2023-05-19T11:24:46;7.53;;;4.03;;
3589;SDS011;1809;48.470;9.226;2023-05-19T11:27:18;9.87;;;5.63;;
3589;SDS011;1809;48.470;9.226;2023-05-19T11:32:30;10.97;;;5.13;;
3589;SDS011;1809;48.470;9.226;2023-05-19T11:35:00;8.60;;;5.07;;
3589;SDS011;1809;48.470;9.226;2023-05-19T11:37:26;9.17;;;5.80;;
3589;SDS011;1809;48.470;9.226;2023-05-19T11:39:53;13.60;;;6.00;;
3589;SDS011;1809;48.470;9.226;2023-05-19T11:42:18;7.70;;;5.07;;
3589;SDS011;1809;48.470;9.226;2023-05-19T11:44:44;6.70;;;4.80;;
3589;SDS011;1809;48.470;9.226;2023-05-19T11:47:11;5.70;;;5.07;;
3589;SDS011;1809;48.470;9.226;2023-05-19T11:49:37;10.07;;;5.00;;
3589;SDS011;1809;48.470;9.226;2023-05-19T11:52:03;10.23;;;5.67;;
3589;SDS011;1809;48.470;9.226;2023-05-19T11:54:32;10.53;;;6.33;;
3589;SDS011;1809;48.470;9.226;2023-05-19T11:57:00;12.07;;;5.07;;
3589;SDS011;1809;48.470;9.226;2023-05-19T11:59:30;4.20;;;3.90;;
3589;SDS011;1809;48.470;9.226;2023-05-19T12:01:59;9.97;;;5.00;;
3589;SDS011;1809;48.470;9.226;2023-05-19T12:04:25;5.30;;;4.90;;
3589;SDS011;1809;48.470;9.226;2023-05-19T12:06:51;7.80;;;4.40;;
3589;SDS011;1809;48.470;9.226;2023-05-19T12:09:18;6.33;;;4.57;;
3589;SDS011;1809;48.470;9.226;2023-05-19T12:11:43;7.03;;;4.00;;
3589;SDS011;1809;48.470;9.226;2023-05-19T12:14:09;9.30;;;5.13;;
3589;SDS011;1809;48.470;9.226;2023-05-19T12:16:35;4.87;;;4.17;;
3589;SDS011;1809;48.470;9.226;2023-05-19T12:19:04;6.00;;;5.40;;
3589;SDS011;1809;48.470;9.226;2023-05-19T12:21:30;6.50;;;4.50;;
3589;SDS011;1809;48.470;9.226;2023-05-19T12:23:56;7.37;;;5.43;;
3589;SDS011;1809;48.470;9.226;2023-05-19T12:26:22;7.87;;;4.27;;
3589;SDS011;1809;48.470;9.226;2023-05-19T12:28:48;10.37;;;5.00;;
3589;SDS011;1809;48.470;9.226;2023-05-19T12:31:14;6.97;;;4.50;;
3589;SDS011;1809;48.470;9.226;2023-05-19T12:33:40;5.00;;;4.40;;
3589;SDS011;1809;48.470;9.226;2023-05-19T12:36:05;6.23;;;4.70;;
3589;SDS011;1809;48.470;9.226;2023-05-19T12:38:32;6.97;;;4.90;;
3589;SDS011;1809;48.470;9.226;2023-05-19T12:40:58;4.90;;;4.27;;
3589;SDS011;1809;48.470;9.226;2023-05-19T12:43:24;9.00;;;4.83;;
3589;SDS011;1809;48.470;9.226;2023-05-19T12:45:49;5.60;;;4.27;;
3589;SDS011;1809;48.470;9.226;2023-05-19T12:48:15;11.63;;;4.27;;
3589;SDS011;1809;48.470;9.226;2023-05-19T12:50:41;5.87;;;3.50;;
3589;SDS011;1809;48.470;9.226;2023-05-19T12:53:07;14.10;;;4.47;;
3589;SDS011;1809;48.470;9.226;2023-05-19T12:55:37;6.50;;;3.90;;
3589;SDS011;1809;48.470;9.226;2023-05-19T12:58:04;10.87;;;4.50;;
3589;SDS011;1809;48.470;9.226;2023-05-19T13:00:30;6.67;;;4.33;;
3589;SDS011;1809;48.470;9.226;2023-05-19T13:02:59;6.03;;;4.73;;
3589;SDS011;1809;48.470;9.226;2023-05-19T13:05:27;5.60;;;4.40;;
3589;SDS011;1809;48.470;9.226;2023-05-19T13:10:19;5.90;;;5.20;;
3589;SDS011;1809;48.470;9.226;2023-05-19T13:12:45;7.20;;;4.83;;
3589;SDS011;1809;48.470;9.226;2023-05-19T13:15:10;6.30;;;5.40;;
3589;SDS011;1809;48.470;9.226;2023-05-19T13:17:35;6.33;;;5.40;;
3589;SDS011;1809;48.470;9.226;2023-05-19T13:20:01;9.03;;;5.60;;
3589;SDS011;1809;48.470;9.226;2023-05-19T13:22:27;8.73;;;6.10;;
3589;SDS011;1809;48.470;9.226;2023-05-19T13:24:52;6.23;;;4.93;;
3589;SDS011;1809;48.470;9.226;2023-05-19T13:27:18;7.90;;;6.57;;
3589;SDS011;1809;48.470;9.226;2023-05-19T13:29:43;7.30;;;6.60;;
3589;SDS011;1809;48.470;9.226;2023-05-19T13:32:08;12.00;;;6.30;;
3589;SDS011;1809;48.470;9.226;2023-05-19T13:34:34;11.40;;;6.63;;
3589;SDS011;1809;48.470;9.226;2023-05-19T13:36:59;6.03;;;5.50;;
3589;SDS011;1809;48.470;9.226;2023-05-19T13:39:25;6.67;;;5.80;;
3589;SDS011;1809;48.470;9.226;2023-05-19T13:41:50;6.83;;;6.00;;
3589;SDS011;1809;48.470;9.226;2023-05-19T13:44:15;8.80;;;5.60;;
3589;SDS011;1809;48.470;9.226;2023-05-19T13:46:41;8.90;;;6.13;;
3589;SDS011;1809;48.470;9.226;2023-05-19T13:49:06;7.37;;;6.00;;
3589;SDS011;1809;48.470;9.226;2023-05-19T13:51:31;7.63;;;5.53;;
3589;SDS011;1809;48.470;9.226;2023-05-19T13:53:57;11.03;;;6.53;;
3589;SDS011;1809;48.470;9.226;2023-05-19T13:56:22;11.90;;;6.70;;
3589;SDS011;1809;48.470;9.226;2023-05-19T13:58:47;7.63;;;6.10;;
3589;SDS011;1809;48.470;9.226;2023-05-19T14:01:13;7.23;;;5.57;;
3589;SDS011;1809;48.470;9.226;2023-05-19T14:03:38;8.53;;;6.33;;
3589;SDS011;1809;48.470;9.226;2023-05-19T14:06:03;11.30;;;6.20;;
3589;SDS011;1809;48.470;9.226;2023-05-19T14:08:29;5.93;;;5.43;;
3589;SDS011;1809;48.470;9.226;2023-05-19T14:10:54;10.30;;;6.50;;
3589;SDS011;1809;48.470;9.226;2023-05-19T14:13:20;8.33;;;5.57;;
3589;SDS011;1809;48.470;9.226;2023-05-19T14:15:46;8.83;;;5.97;;
3589;SDS011;1809;48.470;9.226;2023-05-19T14:18:12;13.30;;;8.90;;
3589;SDS011;1809;48.470;9.226;2023-05-19T14:20:38;8.33;;;5.53;;
3589;SDS011;1809;48.470;9.226;2023-05-19T14:23:03;4.97;;;4.57;;
3589;SDS011;1809;48.470;9.226;2023-05-19T14:25:28;7.50;;;5.90;;
3589;SDS011;1809;48.470;9.226;2023-05-19T14:27:54;11.60;;;7.00;;
3589;SDS011;1809;48.470;9.226;2023-05-19T14:30:19;7.63;;;5.20;;
3589;SDS011;1809;48.470;9.226;2023-05-19T14:32:44;6.60;;;5.40;;
3589;SDS011;1809;48.470;9.226;2023-05-19T14:35:10;7.77;;;6.90;;
3589;SDS011;1809;48.470;9.226;2023-05-19T14:37:35;11.43;;;5.90;;
3589;SDS011;1809;48.470;9.226;2023-05-19T14:40:00;10.50;;;5.40;;
3589;SDS011;1809;48.470;9.226;2023-05-19T14:42:26;10.00;;;7.03;;
3589;SDS011;1809;48.470;9.226;2023-05-19T14:44:51;9.67;;;5.93;;
3589;SDS011;1809;48.470;9.226;2023-05-19T14:47:16;9.37;;;5.27;;
3589;SDS011;1809;48.470;9.226;2023-05-19T14:49:41;10.30;;;5.90;;
3589;SDS011;1809;48.470;9.226;2023-05-19T14:52:07;7.20;;;6.50;;
3589;SDS011;1809;48.470;9.226;2023-05-19T14:54:32;7.00;;;5.30;;
3589;SDS011;1809;48.470;9.226;2023-05-19T14:56:58;5.63;;;5.13;;
3589;SDS011;1809;48.470;9.226;2023-05-19T14:59:23;8.80;;;6.30;;
3589;SDS011;1809;48.470;9.226;2023-05-19T15:01:48;7.90;;;6.40;;
3589;SDS011;1809;48.470;9.226;2023-05-19T15:04:14;13.27;;;6.13;;
3589;SDS011;1809;48.470;9.226;2023-05-19T15:06:39;10.37;;;5.60;;
3589;SDS011;1809;48.470;9.226;2023-05-19T15:09:04;9.17;;;6.43;;
3589;SDS011;1809;48.470;9.226;2023-05-19T15:11:30;5.90;;;5.40;;
3589;SDS011;1809;48.470;9.226;2023-05-19T15:13:55;7.20;;;5.73;;
3589;SDS011;1809;48.470;9.226;2023-05-19T15:16:20;6.90;;;5.63;;
3589;SDS011;1809;48.470;9.226;2023-05-19T15:18:46;6.73;;;5.40;;
3589;SDS011;1809;48.470;9.226;2023-05-19T15:21:11;14.10;;;8.67;;
3589;SDS011;1809;48.470;9.226;2023-05-19T15:23:37;9.27;;;8.00;;
3589;SDS011;1809;48.470;9.226;2023-05-19T15:26:02;13.30;;;8.87;;
3589;SDS011;1809;48.470;9.226;2023-05-19T15:28:27;16.03;;;10.23;;
3589;SDS011;1809;48.470;9.226;2023-05-19T15:30:53;17.17;;;5.90;;